Edmonton Stony Plain Alta., Canada
Current Conditions -  °F | °C
As of 2:26 AM on Wednesday 28 Jan 2015 (Local Time) from CZVL Reporting Station
Haze Haze  
Wind Chill: 30°   Ceiling: 10000
Heat Index: 30°   Visibility: 6mi
Dew Point: 30°   Wind: 2mph
Humidity: 100%   Direction: 180°S
Pressure: 29.96"   Gusts: NA
Location:  53.53°N, 114.1°W
Report Text: CZVL 280926Z AUTO 18002KT 6SM BR OVC100 M01/M01 A2996 RMK SLP176
Loading
Personal Weather Stations






























Interactive Weather Map New forecast layout! Learn more

10-Day Weather Forecast

Advertisements
Track Severe Weather on mobile